Time;durP1;ratioP1;P1;durP2;ratioP2;P2;SDS_P1;SDS_P2;PMS_P1;PMS_P2;Temp;Humidity;BMP_temperature;BMP_pressure;BME280_temperature;BME280_humidity;BME280_pressure;Samples;Min_cycle;Max_cycle;Signal;HPM_P1;HPM_P2
2022/03/26 00:00:00;;;;;;;38.78;26.98;;;;;;;;;;4996107;28;20473;-54
2022/03/26 00:02:45;;;;;;;34.20;24.67;;;;;;;;;;4978613;28;20036;-55
2022/03/26 00:05:30;;;;;;;40.58;27.42;;;;;;;;;;5021747;28;20046;-62
2022/03/26 00:08:16;;;;;;;36.25;26.27;;;;;;;;;;5022152;28;20049;-52
2022/03/26 00:11:01;;;;;;;37.53;26.20;;;;;;;;;;4995213;28;20077;-55
2022/03/26 00:13:46;;;;;;;36.20;26.13;;;;;;;;;;4999683;28;20385;-55
2022/03/26 00:16:32;;;;;;;38.63;26.27;;;;;;;;;;4991016;28;20030;-59
2022/03/26 00:19:17;;;;;;;39.13;25.55;;;;;;;;;;4998919;28;20626;-55
2022/03/26 00:22:03;;;;;;;39.55;26.27;;;;;;;;;;5008702;28;20040;-52
2022/03/26 00:24:48;;;;;;;41.97;26.30;;;;;;;;;;5019899;28;20072;-63
2022/03/26 00:27:34;;;;;;;37.95;26.77;;;;;;;;;;4980783;28;20103;-52
2022/03/26 00:30:20;;;;;;;38.47;26.63;;;;;;;;;;5009932;28;20045;-57
2022/03/26 00:33:05;;;;;;;37.85;26.15;;;;;;;;;;5000724;28;20117;-52
2022/03/26 00:35:51;;;;;;;36.30;25.38;;;;;;;;;;4970095;28;20577;-58
2022/03/26 00:38:36;;;;;;;41.55;27.80;;;;;;;;;;5007650;28;20041;-54
2022/03/26 00:41:23;;;;;;;40.80;27.05;;;;;;;;;;4994382;28;20026;-56
2022/03/26 00:44:08;;;;;;;36.45;25.67;;;;;;;;;;5022107;28;20034;-64
2022/03/26 00:46:53;;;;;;;41.00;27.25;;;;;;;;;;4990806;28;20365;-61
2022/03/26 00:49:38;;;;;;;36.15;25.83;;;;;;;;;;5032833;28;20184;-61
2022/03/26 00:52:23;;;;;;;37.90;26.90;;;;;;;;;;4993493;28;20038;-64
2022/03/26 00:55:09;;;;;;;43.20;25.95;;;;;;;;;;4997870;28;20448;-64
2022/03/26 00:57:54;;;;;;;39.55;26.77;;;;;;;;;;5014600;28;20358;-64
2022/03/26 01:00:42;;;;;;;37.92;25.05;;;;;;;;;;5010381;28;20080;-62
2022/03/26 01:03:27;;;;;;;34.53;25.90;;;;;;;;;;5003987;28;20048;-64
2022/03/26 01:06:13;;;;;;;35.40;24.17;;;;;;;;;;4980830;28;20100;-65
2022/03/26 01:08:58;;;;;;;41.00;25.90;;;;;;;;;;5000080;28;20065;-65
2022/03/26 01:11:43;;;;;;;37.75;26.50;;;;;;;;;;4993357;28;20037;-67
2022/03/26 01:14:29;;;;;;;39.55;27.08;;;;;;;;;;5007996;28;20030;-66
2022/03/26 01:17:14;;;;;;;35.75;26.58;;;;;;;;;;4993570;28;20148;-65
2022/03/26 01:19:59;;;;;;;35.40;25.35;;;;;;;;;;5023271;28;20057;-65
2022/03/26 01:22:45;;;;;;;34.45;25.90;;;;;;;;;;4995521;28;20449;-70
2022/03/26 01:25:30;;;;;;;38.42;26.17;;;;;;;;;;5008913;28;20117;-68
2022/03/26 01:28:16;;;;;;;36.83;24.30;;;;;;;;;;4996760;28;20187;-69
2022/03/26 01:31:01;;;;;;;41.35;24.58;;;;;;;;;;4993551;28;20088;-68
2022/03/26 01:33:47;;;;;;;35.75;26.13;;;;;;;;;;5009668;28;20022;-68
2022/03/26 01:36:33;;;;;;;34.50;25.58;;;;;;;;;;5004885;28;20454;-57
2022/03/26 01:39:20;;;;;;;40.28;25.50;;;;;;;;;;4996525;28;20038;-67
2022/03/26 01:42:06;;;;;;;36.28;25.42;;;;;;;;;;4996801;28;20030;-65
2022/03/26 01:44:51;;;;;;;39.28;26.33;;;;;;;;;;5007622;28;20441;-65
2022/03/26 01:47:37;;;;;;;34.90;26.25;;;;;;;;;;4996045;28;20484;-67
2022/03/26 01:50:22;;;;;;;36.75;25.48;;;;;;;;;;5017296;28;20044;-64
2022/03/26 01:53:08;;;;;;;42.03;26.80;;;;;;;;;;5010116;28;20117;-68
2022/03/26 01:55:53;;;;;;;43.58;25.10;;;;;;;;;;4980748;28;20033;-56
2022/03/26 01:58:38;;;;;;;39.88;26.55;;;;;;;;;;5008059;28;20080;-61
2022/03/26 02:01:24;;;;;;;39.42;25.88;;;;;;;;;;5008762;28;20476;-62
2022/03/26 02:04:09;;;;;;;36.05;25.60;;;;;;;;;;5001486;28;20036;-64
2022/03/26 02:06:54;;;;;;;43.00;26.90;;;;;;;;;;5003019;28;20128;-62
2022/03/26 02:09:39;;;;;;;38.25;27.40;;;;;;;;;;5006336;28;20030;-65
2022/03/26 02:12:29;;;;;;;38.75;27.08;;;;;;;;;;4985953;28;20030;-63
2022/03/26 02:15:15;;;;;;;39.95;26.77;;;;;;;;;;4977776;28;20156;-61
2022/03/26 02:18:00;;;;;;;41.70;27.08;;;;;;;;;;5005830;28;20424;-60
2022/03/26 02:20:45;;;;;;;37.22;25.58;;;;;;;;;;5000169;28;20264;-60
2022/03/26 02:23:31;;;;;;;37.72;26.25;;;;;;;;;;5024524;28;20034;-60
2022/03/26 02:26:20;;;;;;;38.72;26.55;;;;;;;;;;4997935;28;20376;-66
2022/03/26 02:29:10;;;;;;;40.25;27.58;;;;;;;;;;4994985;28;20040;-60
2022/03/26 02:31:55;;;;;;;41.10;26.63;;;;;;;;;;4998849;28;20038;-57
2022/03/26 02:34:41;;;;;;;41.22;27.25;;;;;;;;;;5021506;28;20053;-57
2022/03/26 02:37:26;;;;;;;42.00;27.13;;;;;;;;;;4998573;28;20405;-56
2022/03/26 02:40:11;;;;;;;38.10;27.00;;;;;;;;;;5010637;28;20065;-55
2022/03/26 02:42:57;;;;;;;40.70;27.17;;;;;;;;;;5002637;28;20037;-62
2022/03/26 02:45:46;;;;;;;41.35;25.98;;;;;;;;;;5022552;28;20038;-57
2022/03/26 02:48:31;;;;;;;38.00;25.83;;;;;;;;;;5005814;28;20045;-57
2022/03/26 02:51:17;;;;;;;39.15;26.67;;;;;;;;;;5008952;28;20392;-61
2022/03/26 02:54:02;;;;;;;40.47;27.25;;;;;;;;;;5005262;28;20034;-54
2022/03/26 02:56:48;;;;;;;40.50;27.67;;;;;;;;;;5022327;28;20038;-58
2022/03/26 02:59:34;;;;;;;37.97;26.13;;;;;;;;;;4994411;28;20125;-55
2022/03/26 03:02:19;;;;;;;41.63;24.85;;;;;;;;;;5022443;28;20034;-54
2022/03/26 03:05:05;;;;;;;39.58;27.30;;;;;;;;;;4982427;28;20037;-55
2022/03/26 03:07:50;;;;;;;39.50;27.35;;;;;;;;;;5010403;28;20046;-56
2022/03/26 03:10:36;;;;;;;36.78;26.92;;;;;;;;;;5021978;28;20527;-57
2022/03/26 03:13:22;;;;;;;38.70;26.35;;;;;;;;;;4980729;28;20030;-63
2022/03/26 03:16:07;;;;;;;39.20;26.23;;;;;;;;;;5023040;28;20053;-59
2022/03/26 03:18:52;;;;;;;41.70;27.75;;;;;;;;;;5011461;28;20396;-60
2022/03/26 03:21:37;;;;;;;43.92;26.13;;;;;;;;;;5003668;28;20469;-62
2022/03/26 03:24:23;;;;;;;41.05;26.88;;;;;;;;;;4995783;28;20365;-60
2022/03/26 03:27:08;;;;;;;37.75;26.05;;;;;;;;;;4998171;28;20030;-62
2022/03/26 03:29:53;;;;;;;41.72;27.00;;;;;;;;;;4991863;28;20042;-66
2022/03/26 03:32:38;;;;;;;43.42;26.00;;;;;;;;;;4997797;28;20038;-64
2022/03/26 03:35:24;;;;;;;42.15;26.35;;;;;;;;;;5013039;28;20037;-64
2022/03/26 03:38:09;;;;;;;42.75;26.83;;;;;;;;;;4988200;28;20034;-63
2022/03/26 03:40:55;;;;;;;45.10;26.80;;;;;;;;;;5001204;28;20038;-64
2022/03/26 03:43:40;;;;;;;36.70;26.05;;;;;;;;;;4988186;28;20120;-63
2022/03/26 03:46:25;;;;;;;38.53;25.90;;;;;;;;;;5000777;28;20034;-60
2022/03/26 03:49:11;;;;;;;40.47;27.60;;;;;;;;;;5018560;28;20038;-66
2022/03/26 03:51:56;;;;;;;39.65;26.38;;;;;;;;;;5008440;28;20109;-65
2022/03/26 03:54:41;;;;;;;38.95;25.55;;;;;;;;;;4993224;28;20392;-64
2022/03/26 03:57:27;;;;;;;40.42;27.13;;;;;;;;;;5022494;28;20046;-63
2022/03/26 04:00:13;;;;;;;38.53;25.83;;;;;;;;;;5022962;28;20486;-65
2022/03/26 04:03:00;;;;;;;42.35;26.50;;;;;;;;;;4996012;28;20084;-63
2022/03/26 04:05:45;;;;;;;41.33;27.20;;;;;;;;;;5001395;28;20485;-67
2022/03/26 04:08:30;;;;;;;40.85;26.58;;;;;;;;;;4982609;28;20087;-62
2022/03/26 04:11:16;;;;;;;40.65;25.58;;;;;;;;;;5022887;28;20165;-62
2022/03/26 04:14:01;;;;;;;37.53;25.35;;;;;;;;;;5007448;28;20068;-63
2022/03/26 04:16:46;;;;;;;42.60;27.02;;;;;;;;;;5022848;28;20030;-63
2022/03/26 04:19:32;;;;;;;44.33;28.40;;;;;;;;;;5007899;28;20042;-61
2022/03/26 04:22:17;;;;;;;41.15;25.63;;;;;;;;;;5007368;28;20046;-53
2022/03/26 04:25:03;;;;;;;41.08;27.30;;;;;;;;;;4994011;28;20076;-65
2022/03/26 04:27:49;;;;;;;39.30;26.10;;;;;;;;;;4997222;28;20113;-69
2022/03/26 04:30:34;;;;;;;38.75;24.95;;;;;;;;;;4991996;28;20073;-65
2022/03/26 04:33:20;;;;;;;38.22;25.27;;;;;;;;;;5008520;28;20088;-66
2022/03/26 04:36:05;;;;;;;40.22;25.23;;;;;;;;;;5021482;28;20100;-67
2022/03/26 04:38:50;;;;;;;40.15;27.23;;;;;;;;;;4995668;28;20069;-66
2022/03/26 04:41:35;;;;;;;41.25;25.30;;;;;;;;;;4996635;28;20053;-62
2022/03/26 04:44:21;;;;;;;39.75;26.67;;;;;;;;;;4994907;28;20029;-68
2022/03/26 04:47:06;;;;;;;39.70;27.20;;;;;;;;;;5021398;28;20038;-64
2022/03/26 04:49:52;;;;;;;40.30;26.52;;;;;;;;;;4996878;28;20384;-63
2022/03/26 04:52:38;;;;;;;38.78;25.50;;;;;;;;;;5015348;28;20116;-67
2022/03/26 04:55:23;;;;;;;41.17;27.40;;;;;;;;;;5001512;28;20132;-67
2022/03/26 04:58:09;;;;;;;40.65;25.65;;;;;;;;;;5001235;28;20362;-65
2022/03/26 05:00:54;;;;;;;39.17;25.33;;;;;;;;;;5024766;28;20034;-60
2022/03/26 05:03:39;;;;;;;38.13;26.08;;;;;;;;;;4991555;28;20040;-67
2022/03/26 05:06:25;;;;;;;42.53;27.40;;;;;;;;;;5003461;28;20030;-68
2022/03/26 05:09:10;;;;;;;36.60;25.73;;;;;;;;;;4982153;28;20034;-66
2022/03/26 05:11:56;;;;;;;38.60;25.38;;;;;;;;;;5011480;28;20113;-65
2022/03/26 05:14:41;;;;;;;37.85;26.33;;;;;;;;;;4993066;28;20497;-66
2022/03/26 05:17:27;;;;;;;38.28;26.45;;;;;;;;;;4999614;28;20091;-55
2022/03/26 05:20:12;;;;;;;39.78;25.80;;;;;;;;;;4997990;28;20048;-67
2022/03/26 05:22:57;;;;;;;37.25;24.08;;;;;;;;;;5021535;28;20503;-65
2022/03/26 05:25:42;;;;;;;39.42;24.95;;;;;;;;;;5011892;28;20041;-65
2022/03/26 05:28:28;;;;;;;39.58;24.85;;;;;;;;;;4999538;28;20041;-64
2022/03/26 05:31:13;;;;;;;36.05;23.67;;;;;;;;;;5017758;28;20046;-63
2022/03/26 05:33:59;;;;;;;41.75;25.45;;;;;;;;;;4999513;28;20026;-63
2022/03/26 05:36:44;;;;;;;38.83;24.85;;;;;;;;;;5024444;28;20038;-54
2022/03/26 05:39:29;;;;;;;38.72;24.98;;;;;;;;;;4992886;28;20100;-67
2022/03/26 05:42:15;;;;;;;38.42;23.90;;;;;;;;;;5024485;28;20037;-68
2022/03/26 05:45:01;;;;;;;44.08;25.50;;;;;;;;;;5011601;28;20029;-67
2022/03/26 05:47:51;;;;;;;38.00;26.15;;;;;;;;;;5010414;28;20050;-66
2022/03/26 05:50:36;;;;;;;36.15;24.35;;;;;;;;;;5006986;28;20970;-66
2022/03/26 05:53:21;;;;;;;38.60;25.52;;;;;;;;;;4992904;28;20029;-69
2022/03/26 05:56:07;;;;;;;41.22;25.95;;;;;;;;;;4992081;28;20090;-52
2022/03/26 05:58:52;;;;;;;38.17;25.20;;;;;;;;;;5023456;28;20408;-66
2022/03/26 06:01:38;;;;;;;41.40;25.45;;;;;;;;;;5021260;28;20033;-66
2022/03/26 06:04:23;;;;;;;43.05;26.58;;;;;;;;;;4997132;28;20052;-68
2022/03/26 06:07:09;;;;;;;44.15;26.75;;;;;;;;;;5014850;28;20025;-65
2022/03/26 06:09:54;;;;;;;40.70;24.65;;;;;;;;;;4991438;28;20072;-67
2022/03/26 06:12:39;;;;;;;38.88;24.02;;;;;;;;;;5012296;28;20296;-66
2022/03/26 06:15:24;;;;;;;40.40;26.50;;;;;;;;;;4980179;28;20098;-66
2022/03/26 06:18:10;;;;;;;40.17;26.15;;;;;;;;;;5014044;28;20120;-67
2022/03/26 06:20:56;;;;;;;36.85;24.73;;;;;;;;;;4987304;28;20030;-65
2022/03/26 06:23:42;;;;;;;42.83;27.10;;;;;;;;;;5008118;28;20555;-65
2022/03/26 06:26:27;;;;;;;37.10;24.05;;;;;;;;;;5016054;28;20033;-64
2022/03/26 06:29:13;;;;;;;42.00;27.23;;;;;;;;;;5008743;28;20049;-66
2022/03/26 06:31:58;;;;;;;40.17;25.95;;;;;;;;;;5008166;28;20034;-53
2022/03/26 06:34:45;;;;;;;39.53;24.90;;;;;;;;;;4992893;28;21300;-67
2022/03/26 06:37:30;;;;;;;39.13;25.05;;;;;;;;;;5017885;28;20169;-65
2022/03/26 06:40:15;;;;;;;36.17;24.83;;;;;;;;;;5005854;28;20734;-67
2022/03/26 06:43:01;;;;;;;41.08;24.67;;;;;;;;;;5015590;28;20366;-68
2022/03/26 06:45:46;;;;;;;38.15;24.63;;;;;;;;;;4988548;28;20087;-69
2022/03/26 06:48:31;;;;;;;38.63;25.02;;;;;;;;;;4994218;28;20405;-69
2022/03/26 06:51:17;;;;;;;38.00;26.08;;;;;;;;;;5009187;28;20050;-63
2022/03/26 06:54:02;;;;;;;35.55;24.02;;;;;;;;;;4994919;28;20034;-54
2022/03/26 06:56:47;;;;;;;41.42;25.58;;;;;;;;;;5024495;28;20037;-55
2022/03/26 06:59:33;;;;;;;43.22;25.65;;;;;;;;;;4993336;28;20404;-54
2022/03/26 07:02:18;;;;;;;35.42;25.25;;;;;;;;;;4997802;28;20037;-55
2022/03/26 07:05:04;;;;;;;36.90;25.20;;;;;;;;;;4994852;28;20566;-54
2022/03/26 07:07:49;;;;;;;38.35;25.75;;;;;;;;;;4998322;28;20042;-57
2022/03/26 07:10:35;;;;;;;37.35;25.75;;;;;;;;;;5006926;28;20034;-56
2022/03/26 07:13:20;;;;;;;40.92;25.88;;;;;;;;;;4986244;28;20400;-56
2022/03/26 07:16:07;;;;;;;37.03;26.13;;;;;;;;;;5005576;28;20109;-55
2022/03/26 07:18:52;;;;;;;39.47;26.42;;;;;;;;;;5007091;28;20053;-53
2022/03/26 07:21:39;;;;;;;41.42;26.00;;;;;;;;;;4972092;28;20524;-55
2022/03/26 07:24:24;;;;;;;36.53;26.42;;;;;;;;;;5012291;28;20033;-56
2022/03/26 07:27:09;;;;;;;42.45;26.08;;;;;;;;;;5020194;28;20041;-57
2022/03/26 07:29:54;;;;;;;41.28;28.27;;;;;;;;;;5008425;28;20550;-57
2022/03/26 07:32:40;;;;;;;39.72;26.88;;;;;;;;;;5019750;28;20120;-59
2022/03/26 07:35:25;;;;;;;39.03;25.48;;;;;;;;;;4996585;28;20373;-55
2022/03/26 07:38:11;;;;;;;36.13;25.15;;;;;;;;;;5020617;28;20123;-56
2022/03/26 07:40:57;;;;;;;40.97;26.88;;;;;;;;;;5008368;28;20029;-54
2022/03/26 07:43:42;;;;;;;40.88;27.65;;;;;;;;;;5008715;28;20037;-57
2022/03/26 07:46:27;;;;;;;39.55;26.73;;;;;;;;;;5005224;28;20049;-70
2022/03/26 07:49:13;;;;;;;39.70;26.58;;;;;;;;;;5012705;28;20034;-70
2022/03/26 07:51:58;;;;;;;41.00;27.60;;;;;;;;;;5006035;28;20038;-69
2022/03/26 07:54:43;;;;;;;42.45;28.67;;;;;;;;;;4988018;28;20137;-70
2022/03/26 07:57:28;;;;;;;37.03;27.77;;;;;;;;;;5001015;28;20034;-67
2022/03/26 08:00:14;;;;;;;41.53;27.75;;;;;;;;;;5006077;28;20042;-67
2022/03/26 08:02:59;;;;;;;39.97;25.95;;;;;;;;;;5018608;28;20172;-66
2022/03/26 08:05:44;;;;;;;40.63;28.35;;;;;;;;;;5001348;28;20033;-60
2022/03/26 08:08:30;;;;;;;41.45;27.17;;;;;;;;;;5017971;28;20030;-62
2022/03/26 08:11:15;;;;;;;39.55;28.13;;;;;;;;;;5004274;28;20085;-63
2022/03/26 08:14:00;;;;;;;41.70;28.10;;;;;;;;;;5004094;28;20033;-62
2022/03/26 08:16:45;;;;;;;42.75;27.83;;;;;;;;;;5018773;28;20544;-63
2022/03/26 08:19:34;;;;;;;43.15;27.38;;;;;;;;;;4994708;28;20029;-62
2022/03/26 08:22:19;;;;;;;41.08;27.02;;;;;;;;;;5007658;28;20046;-66
2022/03/26 08:25:05;;;;;;;42.50;28.48;;;;;;;;;;4991975;28;20277;-60
2022/03/26 08:27:50;;;;;;;37.58;28.40;;;;;;;;;;5020285;28;20052;-62
2022/03/26 08:30:36;;;;;;;39.45;27.88;;;;;;;;;;4992525;28;20044;-62
2022/03/26 08:33:21;;;;;;;39.15;27.65;;;;;;;;;;5021150;28;20077;-61
2022/03/26 08:36:07;;;;;;;39.85;28.55;;;;;;;;;;5006237;28;20476;-60
2022/03/26 08:38:52;;;;;;;42.53;29.27;;;;;;;;;;5006999;28;20045;-61
2022/03/26 08:41:37;;;;;;;45.05;31.95;;;;;;;;;;5007130;28;20108;-59
2022/03/26 08:44:22;;;;;;;51.60;31.63;;;;;;;;;;5016130;28;20428;-59
2022/03/26 08:47:08;;;;;;;45.85;29.90;;;;;;;;;;4989351;28;20030;-57
2022/03/26 08:49:53;;;;;;;43.45;31.00;;;;;;;;;;5004215;28;20033;-57
2022/03/26 08:52:38;;;;;;;51.60;30.85;;;;;;;;;;5021454;28;20034;-60
2022/03/26 08:55:24;;;;;;;38.58;29.25;;;;;;;;;;4989767;28;20182;-55
2022/03/26 08:58:10;;;;;;;48.95;31.00;;;;;;;;;;5008149;28;20457;-62
2022/03/26 09:00:56;;;;;;;45.00;32.40;;;;;;;;;;5007588;28;20050;-63
2022/03/26 09:03:43;;;;;;;44.35;32.28;;;;;;;;;;5021400;28;20038;-64
2022/03/26 09:06:29;;;;;;;44.08;30.27;;;;;;;;;;4999876;28;20468;-62
2022/03/26 09:09:16;;;;;;;44.85;33.05;;;;;;;;;;5011440;28;20038;-66
2022/03/26 09:12:01;;;;;;;48.72;32.38;;;;;;;;;;5005478;28;20034;-65
2022/03/26 09:14:46;;;;;;;45.22;33.53;;;;;;;;;;5007859;28;20095;-61
2022/03/26 09:17:32;;;;;;;49.03;33.15;;;;;;;;;;5022074;28;20072;-55
2022/03/26 09:20:17;;;;;;;41.60;31.38;;;;;;;;;;5008820;28;20038;-63
2022/03/26 09:23:03;;;;;;;43.22;32.40;;;;;;;;;;4991070;28;20033;-64
2022/03/26 09:25:48;;;;;;;40.67;29.88;;;;;;;;;;5014644;28;20125;-63
2022/03/26 09:28:33;;;;;;;47.90;33.40;;;;;;;;;;5000207;28;20140;-64
2022/03/26 09:31:18;;;;;;;44.60;33.65;;;;;;;;;;5006971;28;20037;-64
2022/03/26 09:34:04;;;;;;;40.30;29.27;;;;;;;;;;5005999;28;20084;-64
2022/03/26 09:36:49;;;;;;;44.53;30.52;;;;;;;;;;4985222;28;20038;-58
2022/03/26 09:39:35;;;;;;;43.45;33.00;;;;;;;;;;4994115;28;20038;-61
2022/03/26 09:42:23;;;;;;;45.92;32.20;;;;;;;;;;5024156;28;20499;-62
2022/03/26 09:45:08;;;;;;;45.58;31.73;;;;;;;;;;5014212;28;20109;-63
2022/03/26 09:47:54;;;;;;;40.88;33.35;;;;;;;;;;5009341;28;20441;-60
2022/03/26 09:50:41;;;;;;;43.88;31.73;;;;;;;;;;5008653;28;20109;-61
2022/03/26 09:53:26;;;;;;;39.97;31.95;;;;;;;;;;4996992;28;20053;-57
2022/03/26 09:56:12;;;;;;;41.67;33.00;;;;;;;;;;5009362;28;20026;-64
2022/03/26 09:58:57;;;;;;;46.10;33.90;;;;;;;;;;5017531;28;20044;-64
2022/03/26 10:01:42;;;;;;;42.28;31.77;;;;;;;;;;4990838;28;20669;-64
2022/03/26 10:04:37;;;;;;;41.88;32.97;;;;;;;;;;5020793;28;20125;-64
2022/03/26 10:07:27;;;;;;;45.28;36.28;;;;;;;;;;5006224;28;20038;-64
2022/03/26 10:10:20;;;;;;;46.63;33.38;;;;;;;;;;5001891;28;20033;-66
2022/03/26 10:13:06;;;;;;;45.80;34.03;;;;;;;;;;4980320;28;20521;-63
2022/03/26 10:16:06;;;;;;;46.10;34.10;;;;;;;;;;5013973;28;20041;-58
2022/03/26 10:18:51;;;;;;;45.38;35.22;;;;;;;;;;4965204;28;20035;-59
2022/03/26 10:21:37;;;;;;;41.50;32.65;;;;;;;;;;5005180;28;20038;-59
2022/03/26 10:24:25;;;;;;;47.22;32.28;;;;;;;;;;5005785;28;20042;-57
2022/03/26 10:27:11;;;;;;;41.40;31.30;;;;;;;;;;5003092;28;20041;-58
2022/03/26 10:29:59;;;;;;;41.97;35.30;;;;;;;;;;4993671;28;20042;-65
2022/03/26 10:32:45;;;;;;;43.45;35.72;;;;;;;;;;5010881;28;20045;-63
2022/03/26 10:35:30;;;;;;;42.22;33.30;;;;;;;;;;4993986;28;20046;-63
2022/03/26 10:38:16;;;;;;;43.35;33.28;;;;;;;;;;5022920;28;20074;-64
2022/03/26 10:41:03;;;;;;;44.53;35.92;;;;;;;;;;4986960;28;20109;-66
2022/03/26 10:44:04;;;;;;;41.33;33.25;;;;;;;;;;5008523;28;20101;-65
2022/03/26 10:46:56;;;;;;;42.00;35.95;;;;;;;;;;4997306;28;20121;-63
2022/03/26 10:49:42;;;;;;;41.40;31.98;;;;;;;;;;4997474;28;20192;-60
2022/03/26 10:52:30;;;;;;;41.58;33.58;;;;;;;;;;4990694;28;20516;-64
2022/03/26 10:55:16;;;;;;;42.58;29.73;;;;;;;;;;5022720;28;20556;-65
2022/03/26 10:58:04;;;;;;;38.97;31.85;;;;;;;;;;4996712;28;20041;-64
2022/03/26 11:00:49;;;;;;;36.83;30.92;;;;;;;;;;5020600;28;20048;-65
2022/03/26 11:03:35;;;;;;;37.78;33.45;;;;;;;;;;5008398;28;20034;-65
2022/03/26 11:06:24;;;;;;;39.53;33.83;;;;;;;;;;5002696;28;20441;-65
2022/03/26 11:09:10;;;;;;;37.70;30.65;;;;;;;;;;5009504;28;20120;-60
2022/03/26 11:11:56;;;;;;;39.80;30.30;;;;;;;;;;4994406;28;20035;-54
2022/03/26 11:14:42;;;;;;;43.42;31.90;;;;;;;;;;5006111;28;20048;-54
2022/03/26 11:17:27;;;;;;;39.45;28.88;;;;;;;;;;4988163;28;20237;-52
2022/03/26 11:20:33;;;;;;;42.10;30.45;;;;;;;;;;4992713;28;20582;-53
2022/03/26 11:23:28;;;;;;;42.88;30.75;;;;;;;;;;5009334;28;20038;-54
2022/03/26 11:26:23;;;;;;;42.00;29.08;;;;;;;;;;4996036;28;20107;-62
2022/03/26 11:29:14;;;;;;;43.03;29.55;;;;;;;;;;4971669;28;20109;-59
2022/03/26 11:32:18;;;;;;;36.42;31.20;;;;;;;;;;5014276;28;20021;-59
2022/03/26 11:35:07;;;;;;;37.40;29.58;;;;;;;;;;5023037;28;20045;-58
2022/03/26 11:37:52;;;;;;;;;;;;;;;;;;5000420;28;20120;-57
2022/03/26 11:40:45;;;;;;;38.13;28.80;;;;;;;;;;4993805;28;19921;-59
2022/03/26 11:43:43;;;;;;;35.90;28.15;;;;;;;;;;5004164;28;20034;-60
2022/03/26 11:52:43;;;;;;;38.42;26.95;;;;;;;;;;4995939;28;20532;-67
2022/03/26 11:55:40;;;;;;;40.38;30.73;;;;;;;;;;4992926;28;20121;-64
2022/03/26 11:58:27;;;;;;;38.40;27.83;;;;;;;;;;4991067;28;20065;-65
2022/03/26 12:01:15;;;;;;;40.63;30.42;;;;;;;;;;5004678;28;20301;-63
2022/03/26 12:04:07;;;;;;;37.60;29.00;;;;;;;;;;5020524;28;20042;-56
2022/03/26 12:06:58;;;;;;;32.20;23.63;;;;;;;;;;4991764;28;20038;-70
2022/03/26 12:09:43;;;;;;;35.78;22.98;;;;;;;;;;5022011;28;20038;-68
2022/03/26 12:12:44;;;;;;;34.17;23.58;;;;;;;;;;4991046;28;20112;-72
2022/03/26 12:15:30;;;;;;;34.78;24.92;;;;;;;;;;5008084;28;20030;-65
2022/03/26 12:18:16;;;;;;;31.20;23.63;;;;;;;;;;5007309;28;20037;-70
2022/03/26 12:21:07;;;;;;;30.58;23.40;;;;;;;;;;4985118;28;20065;-64
2022/03/26 12:23:52;;;;;;;31.20;24.33;;;;;;;;;;5020810;28;20036;-62
2022/03/26 12:26:47;;;;;;;35.70;23.88;;;;;;;;;;5020406;28;20373;-63
2022/03/26 12:29:37;;;;;;;44.45;23.15;;;;;;;;;;4994119;28;20515;-61
2022/03/26 12:32:28;;;;;;;35.70;25.35;;;;;;;;;;5008260;28;20044;-64
2022/03/26 12:35:14;;;;;;;31.15;22.55;;;;;;;;;;5009389;28;20034;-63
2022/03/26 12:38:01;;;;;;;30.55;21.50;;;;;;;;;;4971951;28;20052;-63
2022/03/26 12:41:00;;;;;;;27.77;19.85;;;;;;;;;;5009377;28;20053;-59
2022/03/26 12:43:53;;;;;;;27.60;19.33;;;;;;;;;;5004662;28;20022;-62
2022/03/26 12:46:39;;;;;;;26.85;19.42;;;;;;;;;;5006571;28;20048;-65
2022/03/26 12:49:25;;;;;;;27.15;19.17;;;;;;;;;;5004862;28;20041;-62
2022/03/26 12:52:10;;;;;;;30.17;19.50;;;;;;;;;;5021694;28;20388;-63
2022/03/26 12:54:56;;;;;;;24.88;18.90;;;;;;;;;;4989671;28;20651;-65
2022/03/26 13:00:58;;;;;;;25.10;18.15;;;;;;;;;;4988793;28;20428;-65
2022/03/26 13:03:44;;;;;;;27.83;18.65;;;;;;;;;;5009677;28;20429;-68
2022/03/26 13:06:30;;;;;;;32.50;18.40;;;;;;;;;;4997328;28;20045;-66
2022/03/26 13:09:16;;;;;;;24.42;17.85;;;;;;;;;;5008758;28;20121;-66
2022/03/26 13:12:02;;;;;;;27.05;18.75;;;;;;;;;;4991059;28;20109;-64
2022/03/26 13:14:48;;;;;;;27.42;17.52;;;;;;;;;;4995708;28;20042;-64
2022/03/26 13:17:33;;;;;;;25.27;17.17;;;;;;;;;;4998311;28;20641;-57
2022/03/26 13:20:25;;;;;;;25.33;18.45;;;;;;;;;;5022951;28;20076;-64
2022/03/26 13:23:14;;;;;;;26.80;17.30;;;;;;;;;;4994284;28;20053;-64
2022/03/26 13:26:02;;;;;;;27.02;17.75;;;;;;;;;;5017079;28;20026;-63
2022/03/26 13:28:47;;;;;;;26.75;17.38;;;;;;;;;;4993197;28;20488;-63
2022/03/26 13:31:33;;;;;;;160.65;27.88;;;;;;;;;;5009635;28;20396;-65
2022/03/26 13:34:23;;;;;;;28.00;17.42;;;;;;;;;;4997040;28;20034;-61
2022/03/26 13:37:10;;;;;;;29.88;16.58;;;;;;;;;;5012586;28;20113;-73
2022/03/26 13:39:56;;;;;;;29.05;16.10;;;;;;;;;;5010123;28;20052;-74
2022/03/26 13:42:43;;;;;;;23.25;15.90;;;;;;;;;;5000435;28;20220;-79
2022/03/26 13:45:28;;;;;;;21.38;14.35;;;;;;;;;;5006011;28;20181;-70
2022/03/26 13:56:55;;;;;;;24.73;17.10;;;;;;;;;;5098295;27;20193;-76
2022/03/26 13:59:47;;;;;;;23.80;14.95;;;;;;;;;;5078230;28;20040;-69
2022/03/26 14:02:36;;;;;;;20.45;14.55;;;;;;;;;;5078723;28;20039;-70
2022/03/26 14:05:29;;;;;;;21.75;15.38;;;;;;;;;;5098434;28;20093;-69
2022/03/26 14:08:14;;;;;;;24.70;15.25;;;;;;;;;;5079239;28;20040;-69
2022/03/26 14:11:00;;;;;;;23.52;15.70;;;;;;;;;;5082572;28;20028;-73
2022/03/26 14:13:46;;;;;;;25.33;17.42;;;;;;;;;;5088862;28;20028;-70
2022/03/26 14:16:31;;;;;;;25.58;16.60;;;;;;;;;;5084535;28;20039;-70
2022/03/26 14:19:16;;;;;;;25.25;17.40;;;;;;;;;;5075032;28;20387;-72
2022/03/26 14:22:01;;;;;;;24.13;15.52;;;;;;;;;;5097044;28;20048;-73
2022/03/26 14:24:47;;;;;;;23.02;16.05;;;;;;;;;;5125058;27;20023;-71
2022/03/26 14:27:32;;;;;;;28.20;17.52;;;;;;;;;;5085735;28;20085;-69
2022/03/26 14:30:17;;;;;;;24.23;16.95;;;;;;;;;;5084570;28;20032;-71
2022/03/26 14:33:03;;;;;;;24.00;15.98;;;;;;;;;;5084776;28;20039;-71
2022/03/26 14:35:49;;;;;;;19.40;14.13;;;;;;;;;;5068718;28;20436;-70
2022/03/26 14:38:34;;;;;;;21.50;14.32;;;;;;;;;;5084425;28;20055;-68
2022/03/26 14:41:19;;;;;;;24.27;15.35;;;;;;;;;;5075806;28;20031;-68
2022/03/26 14:44:05;;;;;;;22.90;15.55;;;;;;;;;;5078640;28;20028;-69
2022/03/26 14:46:50;;;;;;;27.80;16.08;;;;;;;;;;5072964;28;20052;-67
2022/03/26 14:49:35;;;;;;;21.00;13.95;;;;;;;;;;5082413;28;20406;-69
2022/03/26 14:52:21;;;;;;;21.90;14.90;;;;;;;;;;5071913;28;20031;-69
2022/03/26 14:55:07;;;;;;;21.80;15.75;;;;;;;;;;5070747;28;20048;-69
2022/03/26 14:57:56;;;;;;;22.45;15.27;;;;;;;;;;5082048;28;20371;-71
2022/03/26 15:00:41;;;;;;;22.17;15.88;;;;;;;;;;5070980;28;20521;-73
2022/03/26 15:03:27;;;;;;;21.67;15.52;;;;;;;;;;5083615;28;20029;-68
2022/03/26 15:06:12;;;;;;;25.88;15.82;;;;;;;;;;5066337;28;20025;-65
2022/03/26 15:08:58;;;;;;;25.05;15.15;;;;;;;;;;5050093;28;20040;-69
2022/03/26 15:11:43;;;;;;;20.70;14.90;;;;;;;;;;5062026;28;20370;-69
2022/03/26 15:14:28;;;;;;;22.83;15.68;;;;;;;;;;5064078;28;20028;-72
2022/03/26 15:17:14;;;;;;;22.27;14.77;;;;;;;;;;5066840;28;20028;-71
2022/03/26 15:19:59;;;;;;;23.58;15.07;;;;;;;;;;5065880;28;20557;-70
2022/03/26 15:22:44;;;;;;;23.70;16.48;;;;;;;;;;5061044;28;20074;-72
2022/03/26 15:25:29;;;;;;;20.73;15.07;;;;;;;;;;5066076;28;20033;-64
2022/03/26 15:28:15;;;;;;;21.63;14.98;;;;;;;;;;5050234;28;20024;-71
2022/03/26 15:31:00;;;;;;;27.77;15.10;;;;;;;;;;5055781;28;20033;-72
2022/03/26 15:33:47;;;;;;;21.10;15.07;;;;;;;;;;5054343;28;20123;-76
2022/03/26 15:36:32;;;;;;;19.65;13.85;;;;;;;;;;5067899;28;20055;-67
2022/03/26 15:39:17;;;;;;;21.88;14.63;;;;;;;;;;5063288;28;20024;-71
2022/03/26 15:42:03;;;;;;;25.45;14.15;;;;;;;;;;5076561;28;20461;-63
2022/03/26 15:44:48;;;;;;;28.50;15.23;;;;;;;;;;5078486;28;20051;-63
2022/03/26 15:47:34;;;;;;;22.63;13.70;;;;;;;;;;5041048;28;20020;-71
2022/03/26 15:50:19;;;;;;;21.20;14.07;;;;;;;;;;5064036;28;20482;-68
2022/03/26 15:53:04;;;;;;;19.27;13.25;;;;;;;;;;5067323;28;20518;-70
2022/03/26 15:55:50;;;;;;;20.33;15.25;;;;;;;;;;5048155;28;20040;-68
2022/03/26 15:58:35;;;;;;;20.13;13.98;;;;;;;;;;5067724;28;20075;-71
2022/03/26 16:01:21;;;;;;;20.25;12.98;;;;;;;;;;5071029;28;20037;-64
2022/03/26 16:04:06;;;;;;;24.13;14.60;;;;;;;;;;5054320;28;20024;-61
2022/03/26 16:06:51;;;;;;;22.35;14.55;;;;;;;;;;5056076;28;20439;-60
2022/03/26 16:09:36;;;;;;;21.27;12.82;;;;;;;;;;5056204;28;20366;-62
2022/03/26 16:12:22;;;;;;;20.58;13.77;;;;;;;;;;5064571;28;20028;-61
2022/03/26 16:15:07;;;;;;;18.15;14.13;;;;;;;;;;5068886;28;20036;-59
2022/03/26 16:17:54;;;;;;;20.13;14.98;;;;;;;;;;5057065;28;20082;-61
2022/03/26 16:20:39;;;;;;;22.48;14.55;;;;;;;;;;5050683;28;20325;-61
2022/03/26 16:23:25;;;;;;;19.13;14.02;;;;;;;;;;5088283;22;20049;-75